createdAt,value
2023-01-06T00:00:36.554Z,79.45
2023-01-06T00:01:38.446Z,79.65
2023-01-06T00:02:40.156Z,79.56
2023-01-06T00:03:42.265Z,79.50
2023-01-06T00:04:44.124Z,79.61
2023-01-06T00:05:45.940Z,79.79
2023-01-06T00:06:47.647Z,79.55
2023-01-06T00:07:50.524Z,79.41
2023-01-06T00:08:52.320Z,79.50
2023-01-06T00:09:54.066Z,79.34
2023-01-06T00:10:55.800Z,79.23
2023-01-06T00:11:57.513Z,79.21
2023-01-06T00:12:59.253Z,78.96
2023-01-06T00:14:01.364Z,78.61
2023-01-06T00:15:03.420Z,78.44
2023-01-06T00:16:15.735Z,77.72
2023-01-06T00:17:17.478Z,77.83
2023-01-06T00:18:19.480Z,77.58
2023-01-06T00:19:21.668Z,77.52
2023-01-06T00:20:23.468Z,77.55
2023-01-06T00:21:25.961Z,77.84
2023-01-06T00:22:27.657Z,77.99
2023-01-06T00:23:29.395Z,78.16
2023-01-06T00:24:31.562Z,78.25
2023-01-06T00:25:33.309Z,78.39
2023-01-06T00:26:35.139Z,78.41
2023-01-06T00:27:38.810Z,78.48
2023-01-06T00:28:40.578Z,78.49
2023-01-06T00:29:42.254Z,78.71
2023-01-06T00:30:44.438Z,79.00
2023-01-06T00:31:46.431Z,79.21
2023-01-06T00:32:48.143Z,79.30
2023-01-06T00:33:49.895Z,79.40
2023-01-06T00:34:51.774Z,79.50
2023-01-06T00:35:59.021Z,79.51
2023-01-06T00:37:00.876Z,79.78
2023-01-06T00:38:02.862Z,79.89
2023-01-06T00:39:04.584Z,80.13
2023-01-06T00:40:06.978Z,79.99
2023-01-06T00:41:11.611Z,80.23
2023-01-06T00:42:13.519Z,79.92
2023-01-06T00:43:15.286Z,79.84
2023-01-06T00:44:17.014Z,79.86
2023-01-06T00:45:18.724Z,79.94
2023-01-06T00:46:20.823Z,79.80
2023-01-06T00:47:22.862Z,79.84
2023-01-06T00:48:24.591Z,79.85
2023-01-06T00:49:26.678Z,79.76
2023-01-06T00:50:28.431Z,79.54
2023-01-06T00:51:30.173Z,79.28
2023-01-06T00:52:31.932Z,78.91
2023-01-06T00:53:33.610Z,78.69
2023-01-06T00:54:35.462Z,78.30
2023-01-06T00:55:37.213Z,78.47
2023-01-06T00:56:41.331Z,78.78
2023-01-06T00:57:43.619Z,78.60
2023-01-06T00:58:45.365Z,78.68
2023-01-06T00:59:47.134Z,78.49
2023-01-06T01:00:48.777Z,78.41
2023-01-06T01:01:53.738Z,78.20
2023-01-06T01:02:55.636Z,78.39
2023-01-06T01:03:57.486Z,78.70
2023-01-06T01:04:59.203Z,78.54
2023-01-06T01:06:01.931Z,78.48
2023-01-06T01:07:03.718Z,78.51
2023-01-06T01:08:05.843Z,78.77
2023-01-06T01:09:07.852Z,78.59
2023-01-06T01:10:10.401Z,79.07
2023-01-06T01:11:13.768Z,78.87
2023-01-06T01:12:15.558Z,78.98
2023-01-06T01:13:17.271Z,79.09
2023-01-06T01:14:20.437Z,78.76
2023-01-06T01:15:22.236Z,78.69
2023-01-06T01:16:23.915Z,78.74
2023-01-06T01:17:30.555Z,79.00
2023-01-06T01:18:32.400Z,79.10
2023-01-06T01:19:35.140Z,79.19
2023-01-06T01:20:37.124Z,79.53
2023-01-06T01:21:39.065Z,79.82
2023-01-06T01:22:40.867Z,80.14
2023-01-06T01:23:42.608Z,80.71
2023-01-06T01:24:44.410Z,81.15
2023-01-06T01:25:46.178Z,81.17
2023-01-06T01:26:48.202Z,81.48
2023-01-06T01:27:49.916Z,81.33
2023-01-06T01:28:51.871Z,81.59
2023-01-06T01:29:53.572Z,81.30
2023-01-06T01:31:02.950Z,81.48
2023-01-06T01:32:05.637Z,81.46
2023-01-06T01:33:07.415Z,81.17
2023-01-06T01:34:10.643Z,80.83
2023-01-06T01:35:12.477Z,80.55
2023-01-06T01:36:17.228Z,80.43
2023-01-06T01:37:19.010Z,80.13
2023-01-06T01:38:20.777Z,79.94
2023-01-06T01:39:27.640Z,79.76
2023-01-06T01:40:29.415Z,79.80
2023-01-06T01:41:31.327Z,79.45
2023-01-06T01:42:33.155Z,79.26
2023-01-06T01:44:23.818Z,79.29
2023-01-06T01:45:29.047Z,79.34
2023-01-06T01:46:39.079Z,79.55
2023-01-06T01:47:45.969Z,79.86
2023-01-06T01:48:48.212Z,80.15
2023-01-06T01:49:54.142Z,80.26
2023-01-06T01:50:58.263Z,80.19
2023-01-06T01:52:00.325Z,80.23
2023-01-06T01:53:19.269Z,80.32
2023-01-06T01:54:25.982Z,80.48
2023-01-06T01:55:30.293Z,80.45
2023-01-06T01:56:35.989Z,80.63
2023-01-06T01:57:44.226Z,80.47
2023-01-06T01:59:05.295Z,80.33
2023-01-06T02:00:08.523Z,80.15
2023-01-06T02:01:12.355Z,80.39
2023-01-06T02:02:17.180Z,80.37
2023-01-06T02:03:21.569Z,80.44
2023-01-06T02:04:26.048Z,80.49
2023-01-06T02:05:29.690Z,80.33
2023-01-06T02:06:32.217Z,80.19
2023-01-06T02:07:34.495Z,79.89
2023-01-06T02:08:42.987Z,79.86
2023-01-06T02:10:11.799Z,80.00
2023-01-06T02:11:13.558Z,79.67
2023-01-06T02:12:15.453Z,79.66
2023-01-06T02:13:17.154Z,79.53
2023-01-06T02:14:22.027Z,79.57
2023-01-06T02:15:30.797Z,79.79
2023-01-06T02:16:57.768Z,79.80
2023-01-06T02:18:17.766Z,80.28
2023-01-06T02:20:23.241Z,80.35
2023-01-06T02:21:55.386Z,80.17
2023-01-06T02:23:28.107Z,80.08
2023-01-06T02:24:41.164Z,80.30
2023-01-06T02:26:01.229Z,80.48
2023-01-06T02:27:25.863Z,80.28
2023-01-06T02:28:42.925Z,80.32
2023-01-06T02:30:22.426Z,80.57
2023-01-06T02:31:42.213Z,80.95
2023-01-06T02:32:52.758Z,80.95
2023-01-06T02:34:16.140Z,80.93
2023-01-06T02:35:26.757Z,80.53
2023-01-06T02:36:52.284Z,80.35
2023-01-06T02:38:15.408Z,80.15
2023-01-06T02:39:41.323Z,79.65
2023-01-06T02:41:31.100Z,79.64
2023-01-06T02:43:01.825Z,79.70
2023-01-06T02:44:22.051Z,79.56
2023-01-06T02:45:30.312Z,79.33
2023-01-06T02:46:53.106Z,79.16
2023-01-06T02:48:12.753Z,79.00
2023-01-06T02:49:26.544Z,78.45
2023-01-06T02:50:37.704Z,78.78
2023-01-06T02:51:58.911Z,78.62
2023-01-06T02:53:00.632Z,78.49
2023-01-06T02:54:15.140Z,78.71
2023-01-06T02:55:25.159Z,78.72
2023-01-06T02:56:32.557Z,78.42
2023-01-06T02:57:42.856Z,78.81
2023-01-06T02:58:52.756Z,78.68
2023-01-06T03:00:02.864Z,78.25
2023-01-06T03:01:13.946Z,77.91
2023-01-06T03:02:19.062Z,78.22
2023-01-06T03:03:24.742Z,77.94
2023-01-06T03:04:38.885Z,77.88
2023-01-06T03:05:44.065Z,78.04
2023-01-06T03:06:49.900Z,78.24
2023-01-06T03:07:53.699Z,78.16
2023-01-06T03:08:57.146Z,78.33
2023-01-06T03:10:02.011Z,78.28
2023-01-06T03:11:04.725Z,78.20
2023-01-06T03:12:33.550Z,78.62
2023-01-06T03:13:42.321Z,78.40
2023-01-06T03:14:51.104Z,78.60
2023-01-06T03:15:52.992Z,78.61
2023-01-06T03:16:55.460Z,78.63
2023-01-06T03:17:57.455Z,78.23
2023-01-06T03:18:59.242Z,78.22
2023-01-06T03:20:01.273Z,78.03
2023-01-06T03:21:10.189Z,78.09
2023-01-06T03:22:12.981Z,77.86
2023-01-06T03:23:14.749Z,77.90
2023-01-06T03:24:16.789Z,77.85
2023-01-06T03:25:18.642Z,77.74
2023-01-06T03:26:20.736Z,77.61
2023-01-06T03:27:26.800Z,77.47
2023-01-06T03:28:28.481Z,77.49
2023-01-06T03:29:30.385Z,77.66
2023-01-06T03:31:10.550Z,77.45
2023-01-06T03:32:44.513Z,77.53
2023-01-06T03:34:19.507Z,77.52
2023-01-06T03:35:58.517Z,77.22
2023-01-06T03:37:24.988Z,77.24
2023-01-06T03:38:38.510Z,77.19
2023-01-06T03:39:47.991Z,77.25
2023-01-06T03:41:40.192Z,77.50
2023-01-06T03:42:47.584Z,77.62
2023-01-06T03:43:49.330Z,78.04
2023-01-06T03:45:06.121Z,77.89
2023-01-06T03:46:27.536Z,77.91
2023-01-06T03:47:41.381Z,78.01
2023-01-06T03:48:49.134Z,78.09
2023-01-06T03:50:10.116Z,78.18
2023-01-06T03:51:27.386Z,78.00
2023-01-06T03:52:33.590Z,78.18
2023-01-06T03:53:45.545Z,78.17
2023-01-06T03:55:14.599Z,77.95
2023-01-06T03:56:38.556Z,78.34
2023-01-06T03:57:46.335Z,78.59
2023-01-06T03:58:53.781Z,78.74
2023-01-06T04:00:01.456Z,79.13
2023-01-06T04:01:04.259Z,79.11
2023-01-06T04:02:06.339Z,79.13
2023-01-06T04:03:11.493Z,78.95
2023-01-06T04:04:13.908Z,79.39
2023-01-06T04:05:17.580Z,79.43
2023-01-06T04:06:19.927Z,79.39
2023-01-06T04:07:22.394Z,79.47
2023-01-06T04:08:24.388Z,79.32
2023-01-06T04:09:26.055Z,79.60
2023-01-06T04:10:27.782Z,79.60
2023-01-06T04:11:30.003Z,79.51
2023-01-06T04:12:31.797Z,79.65
2023-01-06T04:13:33.587Z,79.77
2023-01-06T04:14:35.345Z,79.78
2023-01-06T04:15:37.115Z,79.93
2023-01-06T04:16:38.761Z,80.02
2023-01-06T04:17:42.208Z,80.12
2023-01-06T04:18:43.871Z,80.28
2023-01-06T04:19:45.584Z,80.07
2023-01-06T04:20:47.298Z,80.24
2023-01-06T04:21:49.078Z,80.28
2023-01-06T04:22:53.354Z,80.36
2023-01-06T04:23:55.102Z,80.21
2023-01-06T04:24:56.836Z,80.31
2023-01-06T04:25:58.549Z,80.25
2023-01-06T04:27:00.316Z,80.36
2023-01-06T04:28:02.059Z,80.20
2023-01-06T04:29:03.934Z,80.27
2023-01-06T04:30:06.849Z,80.30
2023-01-06T04:31:08.694Z,80.21
2023-01-06T04:32:10.619Z,80.24
2023-01-06T04:33:12.409Z,80.23
2023-01-06T04:34:14.140Z,80.38
2023-01-06T04:35:15.844Z,80.43
2023-01-06T04:36:17.763Z,80.50
2023-01-06T04:37:21.421Z,80.53
2023-01-06T04:38:23.302Z,80.57
2023-01-06T04:39:24.985Z,80.47
2023-01-06T04:40:26.746Z,80.37
2023-01-06T04:41:28.399Z,80.20
2023-01-06T04:42:30.129Z,79.94
2023-01-06T04:43:31.831Z,79.83
2023-01-06T04:44:33.662Z,80.14
2023-01-06T04:45:35.681Z,80.21
2023-01-06T04:46:37.503Z,80.01
2023-01-06T04:47:39.130Z,80.12
2023-01-06T04:48:40.918Z,80.22
2023-01-06T04:49:42.692Z,80.17
2023-01-06T04:50:44.431Z,80.29
2023-01-06T04:51:46.131Z,80.17
2023-01-06T04:52:47.862Z,80.09
2023-01-06T04:53:49.629Z,80.01
2023-01-06T04:54:51.392Z,79.99
2023-01-06T04:55:53.147Z,80.49
2023-01-06T04:56:54.879Z,80.79
2023-01-06T04:57:56.627Z,81.15
2023-01-06T04:58:59.112Z,81.27
2023-01-06T05:00:00.815Z,81.60
2023-01-06T05:01:08.336Z,81.59
2023-01-06T05:02:10.166Z,81.64
2023-01-06T05:03:11.785Z,81.49
2023-01-06T05:04:13.539Z,81.39
2023-01-06T05:05:16.209Z,81.12
2023-01-06T05:06:19.010Z,81.15
2023-01-06T05:07:20.688Z,81.23
2023-01-06T05:08:22.404Z,81.12
2023-01-06T05:09:24.154Z,81.05
2023-01-06T05:10:25.849Z,80.67
2023-01-06T05:11:28.235Z,80.75
2023-01-06T05:12:31.869Z,81.03
2023-01-06T05:13:34.348Z,81.00
2023-01-06T05:14:36.042Z,81.32
2023-01-06T05:15:39.542Z,81.38
2023-01-06T05:16:41.433Z,81.58
2023-01-06T05:17:43.228Z,81.59
2023-01-06T05:18:45.222Z,81.74
2023-01-06T05:19:47.153Z,81.74
2023-01-06T05:20:53.338Z,81.92
2023-01-06T05:21:55.036Z,81.91
2023-01-06T05:22:56.736Z,82.23
2023-01-06T05:23:58.471Z,82.25
2023-01-06T05:25:00.204Z,82.27
2023-01-06T05:26:01.966Z,82.35
2023-01-06T05:27:04.369Z,82.58
2023-01-06T05:28:06.069Z,82.30
2023-01-06T05:29:07.919Z,82.39
2023-01-06T05:30:10.119Z,82.30
2023-01-06T05:31:12.512Z,82.29
2023-01-06T05:32:14.241Z,82.14
2023-01-06T05:33:16.213Z,82.02
2023-01-06T05:34:17.931Z,81.83
2023-01-06T05:35:19.630Z,81.68
2023-01-06T05:36:21.451Z,81.78
2023-01-06T05:37:23.097Z,82.02
2023-01-06T05:38:24.786Z,81.72
2023-01-06T05:39:26.511Z,81.99
2023-01-06T05:40:28.973Z,82.13
2023-01-06T05:41:30.744Z,81.77
2023-01-06T05:42:32.440Z,81.61
2023-01-06T05:43:36.412Z,81.73
2023-01-06T05:44:38.112Z,81.31
2023-01-06T05:45:48.852Z,81.71
2023-01-06T05:46:50.898Z,81.77
2023-01-06T05:47:53.137Z,82.54
2023-01-06T05:48:54.810Z,82.88
2023-01-06T05:49:56.534Z,83.10
2023-01-06T05:51:13.321Z,83.59
2023-01-06T05:52:15.016Z,83.40
2023-01-06T05:53:16.735Z,83.38
2023-01-06T05:54:18.480Z,83.22
2023-01-06T05:55:20.165Z,83.64
2023-01-06T05:56:23.412Z,83.66
2023-01-06T05:57:25.078Z,84.32
2023-01-06T05:58:26.989Z,84.17
2023-01-06T05:59:28.661Z,84.38
2023-01-06T06:00:30.404Z,84.66
2023-01-06T06:01:32.983Z,84.64
2023-01-06T06:02:34.712Z,84.34
2023-01-06T06:03:36.464Z,84.26
2023-01-06T06:04:38.231Z,84.52
2023-01-06T06:05:39.884Z,84.04
2023-01-06T06:06:41.650Z,83.58
2023-01-06T06:07:43.347Z,83.53
2023-01-06T06:08:45.442Z,83.17
2023-01-06T06:09:47.168Z,82.77
2023-01-06T06:10:48.894Z,82.32
2023-01-06T06:11:50.635Z,81.50
2023-01-06T06:12:52.344Z,81.48
2023-01-06T06:13:56.589Z,81.04
2023-01-06T06:14:58.407Z,80.50
2023-01-06T06:16:08.180Z,80.03
2023-01-06T06:17:09.954Z,79.74
2023-01-06T06:18:11.768Z,79.17
2023-01-06T06:19:13.587Z,78.89
2023-01-06T06:20:15.281Z,78.94
2023-01-06T06:21:19.590Z,78.77
2023-01-06T06:22:21.302Z,78.53
2023-01-06T06:23:22.980Z,78.07
2023-01-06T06:24:24.798Z,78.29
2023-01-06T06:25:26.490Z,77.89
2023-01-06T06:26:28.945Z,77.39
2023-01-06T06:27:30.655Z,77.02
2023-01-06T06:28:34.013Z,76.53
2023-01-06T06:29:35.915Z,76.25
2023-01-06T06:30:37.610Z,76.04
2023-01-06T06:31:39.316Z,75.77
2023-01-06T06:32:40.997Z,75.48
2023-01-06T06:33:42.707Z,75.53
2023-01-06T06:34:44.396Z,75.13
2023-01-06T06:35:55.435Z,74.97
2023-01-06T06:36:57.167Z,74.69
2023-01-06T06:37:58.847Z,74.66
2023-01-06T06:39:01.647Z,74.60
2023-01-06T06:40:03.706Z,74.39
2023-01-06T06:41:05.479Z,74.46
2023-01-06T06:42:07.329Z,74.90
2023-01-06T06:43:09.008Z,75.19
2023-01-06T06:44:10.721Z,75.28
2023-01-06T06:45:12.415Z,75.24
2023-01-06T06:46:14.069Z,74.77
2023-01-06T06:47:15.852Z,74.73
2023-01-06T06:48:17.746Z,74.42
2023-01-06T06:49:19.479Z,74.60
2023-01-06T06:50:21.221Z,74.64
2023-01-06T06:51:24.292Z,74.50
2023-01-06T06:52:25.971Z,74.39
2023-01-06T06:53:28.284Z,74.30
2023-01-06T06:54:30.175Z,74.31
2023-01-06T06:55:32.932Z,74.45
2023-01-06T06:56:34.620Z,74.34
2023-01-06T06:57:36.523Z,74.13
2023-01-06T06:58:38.866Z,73.98
2023-01-06T06:59:40.583Z,74.15
2023-01-06T07:00:42.259Z,74.10
2023-01-06T07:01:44.182Z,74.52
2023-01-06T07:02:49.786Z,74.33
2023-01-06T07:03:51.488Z,74.16
2023-01-06T07:04:53.193Z,73.84
2023-01-06T07:05:55.441Z,73.42
2023-01-06T07:06:57.177Z,73.22
2023-01-06T07:07:58.832Z,73.01
2023-01-06T07:09:00.643Z,73.14
2023-01-06T07:10:02.347Z,73.01
2023-01-06T07:11:04.556Z,72.84
2023-01-06T07:12:06.708Z,72.79
2023-01-06T07:13:08.372Z,73.05
2023-01-06T07:14:09.989Z,73.23
2023-01-06T07:15:11.670Z,73.14
2023-01-06T07:16:13.463Z,73.10
2023-01-06T07:17:15.239Z,72.28
2023-01-06T07:18:17.453Z,71.93
2023-01-06T07:19:19.120Z,72.25
2023-01-06T07:20:21.080Z,72.02
2023-01-06T07:21:22.826Z,71.57
2023-01-06T07:22:24.533Z,71.52
2023-01-06T07:23:26.340Z,71.21
2023-01-06T07:24:28.030Z,70.66
2023-01-06T07:25:30.353Z,70.57
2023-01-06T07:26:32.149Z,70.90
2023-01-06T07:27:34.453Z,70.71
2023-01-06T07:28:36.185Z,70.76
2023-01-06T07:29:38.016Z,70.19
2023-01-06T07:30:39.807Z,70.03
2023-01-06T07:31:41.614Z,69.89
2023-01-06T07:32:43.279Z,69.92
2023-01-06T07:33:44.926Z,69.74
2023-01-06T07:34:46.627Z,69.12
2023-01-06T07:35:52.873Z,68.47
2023-01-06T07:36:54.704Z,68.23
2023-01-06T07:38:02.965Z,68.00
2023-01-06T07:39:04.725Z,67.63
2023-01-06T07:40:06.972Z,67.69
2023-01-06T07:41:08.701Z,66.36
2023-01-06T07:42:11.103Z,66.06
2023-01-06T07:43:12.842Z,65.64
2023-01-06T07:44:16.131Z,65.63
2023-01-06T07:45:19.499Z,65.51
2023-01-06T07:46:21.400Z,65.63
2023-01-06T07:47:23.043Z,64.96
2023-01-06T07:48:24.774Z,64.87
2023-01-06T07:49:26.528Z,64.47
2023-01-06T07:50:28.908Z,63.99
2023-01-06T07:51:30.691Z,63.79
2023-01-06T07:52:32.994Z,64.70
2023-01-06T07:53:34.963Z,63.99
2023-01-06T07:54:36.715Z,63.62
2023-01-06T07:55:38.636Z,64.36
2023-01-06T07:56:40.437Z,63.55
2023-01-06T07:57:42.954Z,62.06
2023-01-06T07:58:44.609Z,62.84
2023-01-06T07:59:46.359Z,62.83
2023-01-06T08:00:48.077Z,62.11
2023-01-06T08:01:49.880Z,62.86
2023-01-06T08:02:51.763Z,61.47
2023-01-06T08:03:53.561Z,61.63
2023-01-06T08:04:55.346Z,61.74
2023-01-06T08:05:57.019Z,62.18
2023-01-06T08:06:58.720Z,62.29
2023-01-06T08:08:00.477Z,62.39
2023-01-06T08:09:02.264Z,61.59
2023-01-06T08:10:04.273Z,61.22
2023-01-06T08:11:07.648Z,61.24
2023-01-06T08:12:09.607Z,61.38
2023-01-06T08:13:11.531Z,61.22
2023-01-06T08:14:13.278Z,59.69
2023-01-06T08:15:15.078Z,59.74
2023-01-06T08:16:16.806Z,59.66
2023-01-06T08:17:18.597Z,60.41
2023-01-06T08:18:20.381Z,60.61
2023-01-06T08:19:22.074Z,60.05
2023-01-06T08:20:24.281Z,58.62
2023-01-06T08:21:26.458Z,58.84
2023-01-06T08:22:28.134Z,59.23
2023-01-06T08:23:30.303Z,59.49
2023-01-06T08:24:32.760Z,58.62
2023-01-06T08:25:34.629Z,58.33
2023-01-06T08:26:36.491Z,59.17
2023-01-06T08:27:38.271Z,59.14
2023-01-06T08:28:45.528Z,58.45
2023-01-06T08:29:47.507Z,59.37
2023-01-06T08:30:49.288Z,59.30
2023-01-06T08:31:54.746Z,58.93
2023-01-06T08:32:59.895Z,59.04
2023-01-06T08:34:01.696Z,58.49
2023-01-06T08:35:03.450Z,57.88
2023-01-06T08:36:07.822Z,57.03
2023-01-06T08:37:09.553Z,57.49
2023-01-06T08:38:11.244Z,56.87
2023-01-06T08:39:14.332Z,57.45
2023-01-06T08:40:16.009Z,57.77
2023-01-06T08:41:17.784Z,57.52
2023-01-06T08:42:19.899Z,57.32
2023-01-06T08:43:21.881Z,57.76
2023-01-06T08:44:23.773Z,57.23
2023-01-06T08:45:25.479Z,57.28
2023-01-06T08:46:27.171Z,57.06
2023-01-06T08:47:28.953Z,56.63
2023-01-06T08:48:31.149Z,55.81
2023-01-06T08:49:33.004Z,56.59
2023-01-06T08:50:34.795Z,56.14
2023-01-06T08:51:36.844Z,56.75
2023-01-06T08:52:38.520Z,55.34
2023-01-06T08:53:40.627Z,55.77
2023-01-06T08:54:42.406Z,55.66
2023-01-06T08:55:44.215Z,53.87
2023-01-06T08:56:46.100Z,54.16
2023-01-06T08:57:47.838Z,53.53
2023-01-06T08:58:54.351Z,54.76
2023-01-06T08:59:56.072Z,53.78
2023-01-06T09:00:57.877Z,53.89
2023-01-06T09:01:59.691Z,53.72
2023-01-06T09:03:01.478Z,54.71
2023-01-06T09:04:05.637Z,53.67
2023-01-06T09:05:07.859Z,53.08
2023-01-06T09:06:09.706Z,54.41
2023-01-06T09:07:11.456Z,54.00
2023-01-06T09:08:13.119Z,55.18
2023-01-06T09:09:14.932Z,55.21
2023-01-06T09:10:17.603Z,54.95
2023-01-06T09:11:20.277Z,54.30
2023-01-06T09:12:22.077Z,54.30
2023-01-06T09:13:23.858Z,54.39
2023-01-06T09:14:25.632Z,53.08
2023-01-06T09:15:27.357Z,52.30
2023-01-06T09:16:29.993Z,53.27
2023-01-06T09:17:31.689Z,53.06
2023-01-06T09:18:33.506Z,53.71
2023-01-06T09:19:35.246Z,53.89
2023-01-06T09:20:37.369Z,54.05
2023-01-06T09:21:39.157Z,53.74
2023-01-06T09:22:40.820Z,53.80
2023-01-06T09:23:42.552Z,53.96
2023-01-06T09:24:44.290Z,53.84
2023-01-06T09:25:45.971Z,53.77
2023-01-06T09:26:48.060Z,53.20
2023-01-06T09:27:49.837Z,53.29
2023-01-06T09:28:51.588Z,52.25
2023-01-06T09:29:53.291Z,51.70
2023-01-06T09:30:55.063Z,51.52
2023-01-06T09:31:56.818Z,52.28
2023-01-06T09:32:58.616Z,52.54
2023-01-06T09:34:00.330Z,52.51
2023-01-06T09:35:02.076Z,51.65
2023-01-06T09:36:04.097Z,52.17
2023-01-06T09:37:05.990Z,51.97
2023-01-06T09:38:07.770Z,51.81
2023-01-06T09:39:09.508Z,51.27
2023-01-06T09:40:30.024Z,51.54
2023-01-06T09:41:52.932Z,51.10
2023-01-06T09:43:01.696Z,50.56
2023-01-06T09:44:11.228Z,49.97
2023-01-06T09:45:19.783Z,51.26
2023-01-06T09:46:26.440Z,50.57
2023-01-06T09:47:44.456Z,50.20
2023-01-06T09:49:03.081Z,50.24
2023-01-06T09:50:04.690Z,50.28
2023-01-06T09:51:07.792Z,51.12
2023-01-06T09:52:39.110Z,51.31
2023-01-06T09:54:04.781Z,50.69
2023-01-06T09:55:32.383Z,49.59
2023-01-06T09:56:34.116Z,50.18
2023-01-06T09:57:40.934Z,50.58
2023-01-06T09:59:18.315Z,50.97
2023-01-06T10:00:34.790Z,50.43
2023-01-06T10:01:41.247Z,50.05
2023-01-06T10:02:43.467Z,49.01
2023-01-06T10:03:47.617Z,48.73
2023-01-06T10:04:50.149Z,47.72
2023-01-06T10:06:00.600Z,47.94
2023-01-06T10:07:05.395Z,48.58
2023-01-06T10:08:23.326Z,48.37
2023-01-06T10:09:40.107Z,48.43
2023-01-06T10:10:58.971Z,48.76
2023-01-06T10:12:03.395Z,47.88
2023-01-06T10:13:32.091Z,47.62
2023-01-06T10:14:55.097Z,47.23
2023-01-06T10:16:15.801Z,48.32
2023-01-06T10:17:31.701Z,47.69
2023-01-06T10:18:48.956Z,47.88
2023-01-06T10:20:05.406Z,47.48
2023-01-06T10:21:27.466Z,47.51
2023-01-06T10:22:36.482Z,47.31
2023-01-06T10:23:44.025Z,47.24
2023-01-06T10:25:33.556Z,47.18
2023-01-06T10:26:43.516Z,47.02
2023-01-06T10:27:56.252Z,46.76
2023-01-06T10:29:20.721Z,47.17
2023-01-06T10:30:36.754Z,47.17
2023-01-06T10:31:41.396Z,47.63
2023-01-06T10:32:45.042Z,48.12
2023-01-06T10:33:50.979Z,48.19
2023-01-06T10:34:52.850Z,47.89
2023-01-06T10:35:56.704Z,47.71
2023-01-06T10:37:10.664Z,48.56
2023-01-06T10:38:13.692Z,48.88
2023-01-06T10:39:21.079Z,48.64
2023-01-06T10:40:25.925Z,47.87
2023-01-06T10:41:36.314Z,48.13
2023-01-06T10:42:48.112Z,47.37
2023-01-06T10:43:50.096Z,47.68
2023-01-06T10:44:51.931Z,47.42
2023-01-06T10:45:53.622Z,47.48
2023-01-06T10:46:55.447Z,47.72
2023-01-06T10:47:58.036Z,48.16
2023-01-06T10:49:01.069Z,47.67
2023-01-06T10:50:02.869Z,47.81
2023-01-06T10:51:36.987Z,47.67
2023-01-06T10:52:39.272Z,48.30
2023-01-06T10:53:40.993Z,47.89
2023-01-06T10:54:44.299Z,47.66
2023-01-06T10:55:58.851Z,46.61
2023-01-06T10:57:04.546Z,46.44
2023-01-06T10:58:35.403Z,46.43
2023-01-06T11:00:09.317Z,47.26
2023-01-06T11:01:15.180Z,47.29
2023-01-06T11:02:22.931Z,46.61
2023-01-06T11:03:33.213Z,46.45
2023-01-06T11:04:35.843Z,46.44
2023-01-06T11:05:37.792Z,47.12
2023-01-06T11:06:44.544Z,45.89
2023-01-06T11:07:51.782Z,46.00
2023-01-06T11:08:54.084Z,44.85
2023-01-06T11:09:55.960Z,45.19
2023-01-06T11:10:58.412Z,45.49
2023-01-06T11:12:03.183Z,45.43
2023-01-06T11:13:07.307Z,46.00
2023-01-06T11:14:18.123Z,46.19
2023-01-06T11:15:22.062Z,46.47
2023-01-06T11:16:33.306Z,46.04
2023-01-06T11:17:36.273Z,47.17
2023-01-06T11:18:38.129Z,47.31
2023-01-06T11:19:42.466Z,46.50
2023-01-06T11:20:44.168Z,45.95
2023-01-06T11:21:46.955Z,45.68
2023-01-06T11:22:48.610Z,45.23
2023-01-06T11:23:52.730Z,44.42
2023-01-06T11:24:54.947Z,45.31
2023-01-06T11:26:07.781Z,46.79
2023-01-06T11:27:17.453Z,47.18
2023-01-06T11:28:21.207Z,46.58
2023-01-06T11:29:27.630Z,45.75
2023-01-06T11:30:29.954Z,46.03
2023-01-06T11:31:31.633Z,45.72
2023-01-06T11:32:33.413Z,44.84
2023-01-06T11:33:38.357Z,45.33
2023-01-06T11:34:53.066Z,44.64
2023-01-06T11:35:56.366Z,44.25
2023-01-06T11:36:59.232Z,45.11
2023-01-06T11:38:01.016Z,45.73
2023-01-06T11:39:12.826Z,44.94
2023-01-06T11:40:29.701Z,45.39
2023-01-06T11:41:37.192Z,44.65
2023-01-06T11:42:39.060Z,43.90
2023-01-06T11:43:45.329Z,44.11
2023-01-06T11:44:47.042Z,43.57
2023-01-06T11:46:04.391Z,43.99
2023-01-06T11:47:35.330Z,45.31
2023-01-06T11:48:57.832Z,44.37
2023-01-06T11:50:01.154Z,44.45
2023-01-06T11:51:05.359Z,44.04
2023-01-06T11:52:27.958Z,44.42
2023-01-06T11:53:30.459Z,45.11
2023-01-06T11:54:37.615Z,45.57
2023-01-06T11:55:39.358Z,45.85
2023-01-06T11:56:41.065Z,44.91
2023-01-06T11:57:42.721Z,46.30
2023-01-06T11:58:55.708Z,46.17
2023-01-06T12:00:26.280Z,46.24
2023-01-06T12:02:03.184Z,45.99
2023-01-06T12:03:23.373Z,45.07
2023-01-06T12:04:48.493Z,45.30
2023-01-06T12:06:04.567Z,45.12
2023-01-06T12:07:20.409Z,44.78
2023-01-06T12:08:57.521Z,44.82
2023-01-06T12:10:10.685Z,45.12
2023-01-06T12:11:39.171Z,44.89
2023-01-06T12:12:40.942Z,44.69
2023-01-06T12:13:44.977Z,44.49
2023-01-06T12:14:57.784Z,43.35
2023-01-06T12:16:17.306Z,43.89
2023-01-06T12:17:43.260Z,43.61
2023-01-06T12:18:45.552Z,43.87
2023-01-06T12:19:56.632Z,44.19
2023-01-06T12:21:00.326Z,43.63
2023-01-06T12:22:03.792Z,43.41
2023-01-06T12:23:10.283Z,43.83
2023-01-06T12:24:16.155Z,44.26
2023-01-06T12:25:33.249Z,44.41
2023-01-06T12:26:35.608Z,43.82
2023-01-06T12:27:45.596Z,44.56
2023-01-06T12:28:48.929Z,44.32
2023-01-06T12:29:52.593Z,44.88
2023-01-06T12:31:16.008Z,44.90
2023-01-06T12:32:22.749Z,45.10
2023-01-06T12:33:27.224Z,45.63
2023-01-06T12:34:35.049Z,46.13
2023-01-06T12:35:41.700Z,46.28
2023-01-06T12:36:53.897Z,45.72
2023-01-06T12:38:01.827Z,46.09
2023-01-06T12:39:12.434Z,46.71
2023-01-06T12:40:22.636Z,46.89
2023-01-06T12:41:47.424Z,46.79
2023-01-06T12:42:49.004Z,46.30
2023-01-06T12:43:58.889Z,46.93
2023-01-06T12:45:11.237Z,46.89
2023-01-06T12:46:21.515Z,46.70
2023-01-06T12:47:32.976Z,46.87
2023-01-06T12:48:44.535Z,46.69
2023-01-06T12:49:54.135Z,47.15
2023-01-06T12:51:20.044Z,47.55
2023-01-06T12:53:19.670Z,47.47
2023-01-06T12:54:31.337Z,47.49
2023-01-06T12:55:46.786Z,46.99
2023-01-06T12:57:09.961Z,46.76
2023-01-06T12:58:32.915Z,47.35
2023-01-06T13:00:08.824Z,46.35
2023-01-06T13:01:25.397Z,47.50
2023-01-06T13:03:06.566Z,47.53
2023-01-06T13:04:17.305Z,47.32
2023-01-06T13:05:48.187Z,48.04
2023-01-06T13:06:59.002Z,48.49
2023-01-06T13:08:25.439Z,47.96
2023-01-06T13:09:51.843Z,48.33
2023-01-06T13:11:07.910Z,48.92
2023-01-06T13:12:24.849Z,49.09
2023-01-06T13:13:47.276Z,48.71
2023-01-06T13:15:09.557Z,48.52
2023-01-06T13:16:16.607Z,49.29
2023-01-06T13:17:27.133Z,49.83
2023-01-06T13:18:34.057Z,49.99
2023-01-06T13:20:03.320Z,49.10
2023-01-06T13:21:10.916Z,48.37
2023-01-06T13:22:19.566Z,48.85
2023-01-06T13:23:41.124Z,48.50
2023-01-06T13:25:17.685Z,49.57
2023-01-06T13:26:45.735Z,49.49
2023-01-06T13:28:24.742Z,49.70
2023-01-06T13:29:41.333Z,50.23
2023-01-06T13:31:17.020Z,50.51
2023-01-06T13:32:21.826Z,50.76
2023-01-06T13:33:48.377Z,51.29
2023-01-06T13:35:02.326Z,50.98
2023-01-06T13:36:32.077Z,50.35
2023-01-06T13:37:54.738Z,50.66
2023-01-06T13:39:04.211Z,50.61
2023-01-06T13:40:18.859Z,50.42
2023-01-06T13:41:26.735Z,49.92
2023-01-06T13:42:51.570Z,50.27
2023-01-06T13:43:56.461Z,50.71
2023-01-06T13:44:58.820Z,50.40
2023-01-06T13:46:05.672Z,50.33
2023-01-06T13:47:35.604Z,50.46
2023-01-06T13:48:42.371Z,50.69
2023-01-06T13:49:44.952Z,50.63
2023-01-06T13:50:47.693Z,51.10
2023-01-06T13:51:50.746Z,51.12
2023-01-06T13:52:54.189Z,50.62
2023-01-06T13:53:56.245Z,51.27
2023-01-06T13:55:03.574Z,51.11
2023-01-06T13:56:14.098Z,51.26
2023-01-06T13:57:21.983Z,51.50
2023-01-06T13:58:23.612Z,51.62
2023-01-06T13:59:25.421Z,51.13
2023-01-06T14:00:28.789Z,51.83
2023-01-06T14:01:32.307Z,50.78
2023-01-06T14:02:34.224Z,51.64
2023-01-06T14:03:43.429Z,50.97
2023-01-06T14:04:47.014Z,51.63
2023-01-06T14:05:51.085Z,51.95
2023-01-06T14:06:52.871Z,51.94
2023-01-06T14:08:00.757Z,52.42
2023-01-06T14:09:02.457Z,52.81
2023-01-06T14:10:23.176Z,52.58
2023-01-06T14:11:33.755Z,52.83
2023-01-06T14:12:36.874Z,52.87
2023-01-06T14:13:41.788Z,53.03
2023-01-06T14:14:43.712Z,52.90
2023-01-06T14:15:54.955Z,53.40
2023-01-06T14:16:57.689Z,53.42
2023-01-06T14:18:02.001Z,54.05
2023-01-06T14:19:09.705Z,54.05
2023-01-06T14:20:38.318Z,53.50